createdAt,value
2018-05-12T00:00:06.402Z,101249.94
2018-05-12T00:02:34.004Z,101241.30
2018-05-12T00:05:01.497Z,101243.73
2018-05-12T00:07:29.002Z,101242.06
2018-05-12T00:09:56.589Z,101242.95
2018-05-12T00:12:24.044Z,101236.55
2018-05-12T00:14:51.537Z,101237.39
2018-05-12T00:17:19.006Z,101232.29
2018-05-12T00:19:46.496Z,101231.56
2018-05-12T00:22:14.032Z,101235.74
2018-05-12T00:24:41.621Z,101233.11
2018-05-12T00:27:09.076Z,101231.34
2018-05-12T00:29:36.655Z,101228.94
2018-05-12T00:32:04.137Z,101237.33
2018-05-12T00:34:31.633Z,101237.33
2018-05-12T00:36:59.104Z,101233.33
2018-05-12T00:39:26.613Z,101235.91
2018-05-12T00:41:54.169Z,101238.16
2018-05-12T00:44:21.664Z,101232.11
2018-05-12T00:46:49.151Z,101235.02
2018-05-12T00:49:16.624Z,101234.39
2018-05-12T00:51:44.128Z,101233.53
2018-05-12T00:54:11.604Z,101230.47
2018-05-12T00:56:39.048Z,101233.82
2018-05-12T00:59:06.569Z,101222.94
2018-05-12T01:01:34.052Z,101225.24
2018-05-12T01:04:01.537Z,101228.50
2018-05-12T01:06:29.049Z,101223.00
2018-05-12T01:08:56.525Z,101222.39
2018-05-12T01:11:23.981Z,101219.67
2018-05-12T01:13:51.513Z,101225.25
2018-05-12T01:16:19.019Z,101220.69
2018-05-12T01:18:46.471Z,101216.04
2018-05-12T01:21:13.960Z,101223.61
2018-05-12T01:23:41.456Z,101220.47
2018-05-12T01:26:08.908Z,101209.64
2018-05-12T01:28:36.389Z,101206.70
2018-05-12T01:31:03.884Z,101211.30
2018-05-12T01:33:31.381Z,101209.52
2018-05-12T01:35:58.847Z,101206.98
2018-05-12T01:38:26.328Z,101206.30
2018-05-12T01:40:53.920Z,101210.41
2018-05-12T01:43:21.467Z,101208.64
2018-05-12T01:45:48.952Z,101211.30
2018-05-12T01:48:16.416Z,101207.84
2018-05-12T01:50:43.919Z,101205.66
2018-05-12T01:53:11.387Z,101206.73
2018-05-12T01:55:38.944Z,101205.19
2018-05-12T01:58:06.423Z,101203.41
2018-05-12T02:00:33.878Z,101202.05
2018-05-12T02:03:01.374Z,101201.33
2018-05-12T02:05:28.865Z,101203.89
2018-05-12T02:07:56.331Z,101202.12
2018-05-12T02:10:23.879Z,101203.58
2018-05-12T02:12:51.471Z,101208.19
2018-05-12T02:15:18.948Z,101209.42
2018-05-12T02:17:46.480Z,101206.77
2018-05-12T02:20:13.968Z,101211.52
2018-05-12T02:22:41.469Z,101212.47
2018-05-12T02:25:09.001Z,101207.97
2018-05-12T02:27:36.500Z,101212.53
2018-05-12T02:30:03.990Z,101209.20
2018-05-12T02:32:31.478Z,101212.66
2018-05-12T02:34:58.975Z,101214.33
2018-05-12T02:37:26.454Z,101216.41
2018-05-12T02:39:53.958Z,101214.00
2018-05-12T02:42:21.469Z,101219.16
2018-05-12T02:44:48.983Z,101219.12
2018-05-12T02:47:16.478Z,101219.94
2018-05-12T02:49:43.970Z,101217.84
2018-05-12T02:52:11.488Z,101224.88
2018-05-12T02:54:39.023Z,101222.75
2018-05-12T02:57:06.501Z,101220.68
2018-05-12T02:59:33.986Z,101222.92
2018-05-12T03:02:01.450Z,101222.77
2018-05-12T03:04:28.935Z,101222.64
2018-05-12T03:06:56.408Z,101215.34
2018-05-12T03:09:23.909Z,101215.25
2018-05-12T03:11:51.386Z,101212.45
2018-05-12T03:14:18.868Z,101214.41
2018-05-12T03:16:46.328Z,101213.59
2018-05-12T03:19:13.833Z,101216.78
2018-05-12T03:21:41.378Z,101221.98
2018-05-12T03:24:08.858Z,101222.58
2018-05-12T03:26:36.346Z,101215.31
2018-05-12T03:29:03.810Z,101217.36
2018-05-12T03:31:31.321Z,101216.88
2018-05-12T03:33:58.793Z,101213.70
2018-05-12T03:36:26.335Z,101216.43
2018-05-12T03:38:53.912Z,101217.13
2018-05-12T03:41:21.453Z,101221.73
2018-05-12T03:43:48.943Z,101219.38
2018-05-12T03:46:16.399Z,101225.64
2018-05-12T03:48:43.939Z,101225.60
2018-05-12T03:51:11.499Z,101222.73
2018-05-12T03:53:38.976Z,101218.05
2018-05-12T03:56:06.457Z,101224.43
2018-05-12T03:58:33.979Z,101219.67
2018-05-12T04:01:01.471Z,101218.31
2018-05-12T04:03:29.099Z,101215.72
2018-05-12T04:06:08.509Z,101222.99
2018-05-12T04:08:47.856Z,101222.20
2018-05-12T04:11:28.176Z,101220.23
2018-05-12T04:13:55.667Z,101216.43
2018-05-12T04:16:23.137Z,101223.61
2018-05-12T04:18:50.620Z,101212.39
2018-05-12T04:21:18.122Z,101205.65
2018-05-12T04:23:45.698Z,101216.48
2018-05-12T04:26:13.253Z,101213.57
2018-05-12T04:28:40.814Z,101209.84
2018-05-12T04:31:08.273Z,101208.70
2018-05-12T04:33:35.751Z,101217.84
2018-05-12T04:36:03.232Z,101215.25
2018-05-12T04:38:30.739Z,101214.06
2018-05-12T04:40:58.237Z,101205.01
2018-05-12T04:43:25.816Z,101201.43
2018-05-12T04:45:53.252Z,101201.80
2018-05-12T04:48:20.720Z,101196.07
2018-05-12T04:50:48.214Z,101193.39
2018-05-12T04:53:15.696Z,101197.34
2018-05-12T04:55:43.181Z,101190.20
2018-05-12T04:58:10.693Z,101192.86
2018-05-12T05:00:38.189Z,101187.10
2018-05-12T05:03:05.693Z,101187.22
2018-05-12T05:05:33.173Z,101189.77
2018-05-12T05:08:00.663Z,101186.80
2018-05-12T05:10:28.181Z,101186.98
2018-05-12T05:12:55.734Z,101187.52
2018-05-12T05:15:23.307Z,101182.66
2018-05-12T05:17:50.753Z,101177.84
2018-05-12T05:20:18.342Z,101178.91
2018-05-12T05:22:45.823Z,101178.08
2018-05-12T05:25:13.313Z,101175.98
2018-05-12T05:27:40.790Z,101173.05
2018-05-12T05:30:08.250Z,101175.79
2018-05-12T05:32:35.824Z,101180.07
2018-05-12T05:35:03.298Z,101185.12
2018-05-12T05:37:30.802Z,101182.66
2018-05-12T05:39:58.409Z,101187.60
2018-05-12T05:42:25.883Z,101195.22
2018-05-12T05:44:53.350Z,101199.01
2018-05-12T05:47:20.831Z,101199.69
2018-05-12T05:49:48.325Z,101201.00
2018-05-12T05:52:15.829Z,101200.25
2018-05-12T05:54:43.372Z,101198.55
2018-05-12T05:57:10.836Z,101203.13
2018-05-12T05:59:38.329Z,101208.62
2018-05-12T06:02:05.861Z,101214.77
2018-05-12T06:04:33.358Z,101211.92
2018-05-12T06:07:00.870Z,101212.92
2018-05-12T06:09:28.382Z,101213.77
2018-05-12T06:11:55.876Z,101217.81
2018-05-12T06:14:23.339Z,101221.86
2018-05-12T06:16:50.825Z,101220.25
2018-05-12T06:19:18.423Z,101223.44
2018-05-12T06:21:45.916Z,101221.89
2018-05-12T06:24:13.411Z,101218.02
2018-05-12T06:26:40.859Z,101230.76
2018-05-12T06:29:08.313Z,101230.91
2018-05-12T06:31:35.787Z,101229.98
2018-05-12T06:34:03.276Z,101231.45
2018-05-12T06:36:30.759Z,101226.31
2018-05-12T06:38:58.249Z,101224.24
2018-05-12T06:41:25.847Z,101220.38
2018-05-12T06:43:53.311Z,101233.31
2018-05-12T06:46:20.948Z,101223.95
2018-05-12T06:48:48.489Z,101230.70
2018-05-12T06:51:15.955Z,101231.41
2018-05-12T06:53:43.523Z,101226.64
2018-05-12T06:56:11.005Z,101229.87
2018-05-12T06:58:38.508Z,101234.07
2018-05-12T07:01:06.023Z,101228.09
2018-05-12T07:03:33.543Z,101230.20
2018-05-12T07:06:01.106Z,101224.66
2018-05-12T07:08:28.680Z,101220.55
2018-05-12T07:10:56.197Z,101223.41
2018-05-12T07:13:23.712Z,101220.08
2018-05-12T07:15:51.186Z,101229.44
2018-05-12T07:18:18.688Z,101227.38
2018-05-12T07:20:46.172Z,101225.19
2018-05-12T07:23:13.625Z,101219.27
2018-05-12T07:25:41.172Z,101219.00
2018-05-12T07:28:08.658Z,101227.69
2018-05-12T07:30:36.153Z,101224.25
2018-05-12T07:33:03.749Z,101226.02
2018-05-12T07:35:31.212Z,101230.55
2018-05-12T07:37:58.704Z,101228.62
2018-05-12T07:40:26.219Z,101228.38
2018-05-12T07:42:53.705Z,101229.53
2018-05-12T07:45:21.161Z,101226.30
2018-05-12T07:47:48.654Z,101223.36
2018-05-12T07:50:16.181Z,101230.20
2018-05-12T07:52:43.715Z,101223.48
2018-05-12T07:55:11.295Z,101230.55
2018-05-12T07:57:38.865Z,101227.23
2018-05-12T08:00:06.383Z,101227.07
2018-05-12T08:02:33.864Z,101227.66
2018-05-12T08:05:01.408Z,101226.95
2018-05-12T08:07:28.908Z,101223.37
2018-05-12T08:09:56.411Z,101222.58
2018-05-12T08:12:23.888Z,101218.61
2018-05-12T08:14:51.347Z,101222.19
2018-05-12T08:17:18.939Z,101224.09
2018-05-12T08:19:46.408Z,101220.11
2018-05-12T08:22:14.457Z,101219.42
2018-05-12T08:24:41.978Z,101217.59
2018-05-12T08:27:09.577Z,101215.94
2018-05-12T08:29:37.128Z,101216.92
2018-05-12T08:32:04.876Z,101218.00
2018-05-12T08:34:32.693Z,101213.16
2018-05-12T08:37:00.335Z,101212.48
2018-05-12T08:39:28.081Z,101207.51
2018-05-12T08:41:55.606Z,101205.68
2018-05-12T08:44:23.098Z,101193.08
2018-05-12T08:46:50.566Z,101198.33
2018-05-12T08:49:18.119Z,101201.48
2018-05-12T08:51:45.657Z,101202.98
2018-05-12T08:54:13.183Z,101198.67
2018-05-12T08:56:40.674Z,101201.27
2018-05-12T08:59:08.160Z,101200.92
2018-05-12T09:01:35.805Z,101196.56
2018-05-12T09:04:03.326Z,101198.28
2018-05-12T09:06:30.891Z,101193.67
2018-05-12T09:08:58.338Z,101191.89
2018-05-12T09:11:25.805Z,101188.15
2018-05-12T09:13:53.307Z,101182.43
2018-05-12T09:16:20.804Z,101179.46
2018-05-12T09:18:48.280Z,101188.93
2018-05-12T09:21:15.770Z,101188.35
2018-05-12T09:23:43.250Z,101183.73
2018-05-12T09:26:10.759Z,101194.17
2018-05-12T09:28:38.260Z,101179.71
2018-05-12T09:31:05.827Z,101185.22
2018-05-12T09:33:33.318Z,101185.29
2018-05-12T09:36:00.887Z,101185.30
2018-05-12T09:38:28.462Z,101187.59
2018-05-12T09:40:56.039Z,101187.30
2018-05-12T09:43:23.527Z,101188.13
2018-05-12T09:45:51.037Z,101189.08
2018-05-12T09:48:18.557Z,101180.38
2018-05-12T09:50:46.046Z,101182.23
2018-05-12T09:53:13.505Z,101177.23
2018-05-12T09:55:40.971Z,101176.59
2018-05-12T09:58:08.767Z,101177.13
2018-05-12T10:00:36.228Z,101167.83
2018-05-12T10:03:03.700Z,101170.31
2018-05-12T10:05:31.172Z,101173.85
2018-05-12T10:07:58.670Z,101167.96
2018-05-12T10:10:26.160Z,101173.17
2018-05-12T10:12:53.702Z,101175.87
2018-05-12T10:15:21.166Z,101172.16
2018-05-12T10:17:48.772Z,101173.38
2018-05-12T10:20:16.230Z,101166.75
2018-05-12T10:22:43.702Z,101158.36
2018-05-12T10:25:11.248Z,101155.68
2018-05-12T10:27:38.746Z,101166.30
2018-05-12T10:30:06.244Z,101158.84
2018-05-12T10:32:33.716Z,101159.41
2018-05-12T10:35:01.381Z,101157.97
2018-05-12T10:37:28.904Z,101153.97
2018-05-12T10:39:56.368Z,101149.33
2018-05-12T10:42:23.975Z,101150.47
2018-05-12T10:44:51.559Z,101149.41
2018-05-12T10:47:19.055Z,101156.75
2018-05-12T10:49:46.555Z,101137.52
2018-05-12T10:52:14.452Z,101148.25
2018-05-12T10:54:41.973Z,101138.41
2018-05-12T10:57:09.466Z,101137.77
2018-05-12T10:59:36.965Z,101143.75
2018-05-12T11:02:04.488Z,101136.69
2018-05-12T11:04:31.955Z,101133.79
2018-05-12T11:06:59.528Z,101137.08
2018-05-12T11:09:27.025Z,101129.77
2018-05-12T11:11:54.497Z,101127.38
2018-05-12T11:14:22.136Z,101133.62
2018-05-12T11:16:49.623Z,101128.84
2018-05-12T11:19:17.108Z,101126.92
2018-05-12T11:21:44.638Z,101119.52
2018-05-12T11:24:12.121Z,101113.05
2018-05-12T11:26:39.620Z,101121.74
2018-05-12T11:29:07.103Z,101115.17
2018-05-12T11:31:34.596Z,101116.30
2018-05-12T11:34:02.087Z,101112.80
2018-05-12T11:36:29.595Z,101116.79
2018-05-12T11:38:57.077Z,101111.02
2018-05-12T11:41:24.576Z,101112.31
2018-05-12T11:43:52.052Z,101103.34
2018-05-12T11:46:19.526Z,101102.73
2018-05-12T11:48:47.030Z,101105.05
2018-05-12T11:51:14.666Z,101101.72
2018-05-12T11:53:42.191Z,101101.12
2018-05-12T11:56:09.688Z,101098.59
2018-05-12T11:58:37.216Z,101095.51
2018-05-12T12:01:04.809Z,101096.89
2018-05-12T12:03:32.328Z,101095.34
2018-05-12T12:05:59.912Z,101092.80
2018-05-12T12:08:27.417Z,101091.80
2018-05-12T12:10:54.939Z,101084.65
2018-05-12T12:13:22.431Z,101081.41
2018-05-12T12:15:49.902Z,101086.08
2018-05-12T12:18:17.407Z,101077.05
2018-05-12T12:20:44.893Z,101080.06
2018-05-12T12:23:12.425Z,101079.62
2018-05-12T12:25:39.916Z,101076.78
2018-05-12T12:28:07.446Z,101068.61
2018-05-12T12:30:34.943Z,101071.99
2018-05-12T12:33:02.430Z,101062.41
2018-05-12T12:35:30.001Z,101064.37
2018-05-12T12:37:57.492Z,101056.78
2018-05-12T12:40:24.996Z,101058.05
2018-05-12T12:42:52.521Z,101052.88
2018-05-12T12:45:20.051Z,101047.27
2018-05-12T12:47:47.577Z,101042.95
2018-05-12T12:50:15.138Z,101044.55
2018-05-12T12:52:42.713Z,101042.73
2018-05-12T12:55:10.184Z,101042.91
2018-05-12T12:57:37.750Z,101037.88
2018-05-12T13:00:05.230Z,101035.52
2018-05-12T13:02:32.724Z,101028.91
2018-05-12T13:05:00.237Z,101028.89
2018-05-12T13:07:27.755Z,101021.89
2018-05-12T13:09:55.285Z,101016.08
2018-05-12T13:12:22.880Z,101013.08
2018-05-12T13:14:50.406Z,101006.89
2018-05-12T13:17:17.867Z,101005.25
2018-05-12T13:19:45.446Z,101006.78
2018-05-12T13:22:12.981Z,101000.59
2018-05-12T13:24:40.488Z,101006.41
2018-05-12T13:27:07.981Z,100996.92
2018-05-12T13:29:35.439Z,100992.27
2018-05-12T13:32:02.905Z,100993.06
2018-05-12T13:34:30.365Z,100984.64
2018-05-12T13:36:57.841Z,100981.77
2018-05-12T13:39:25.341Z,100974.61
2018-05-12T13:41:52.862Z,100977.95
2018-05-12T13:44:20.341Z,100979.73
2018-05-12T13:46:47.807Z,100975.33
2018-05-12T13:49:15.352Z,100970.67
2018-05-12T13:51:42.835Z,100975.20
2018-05-12T13:54:10.340Z,100971.09
2018-05-12T13:56:37.907Z,100967.00
2018-05-12T13:59:05.503Z,100962.45
2018-05-12T14:01:33.078Z,100962.74
2018-05-12T14:04:00.535Z,100964.64
2018-05-12T14:06:28.057Z,100955.59
2018-05-12T14:08:55.636Z,100960.30
2018-05-12T14:11:23.111Z,100962.38
2018-05-12T14:13:50.611Z,100954.41
2018-05-12T14:16:18.080Z,100945.59
2018-05-12T14:18:45.565Z,100945.25
2018-05-12T14:21:13.034Z,100947.41
2018-05-12T14:23:40.491Z,100939.16
2018-05-12T14:26:08.022Z,100938.42
2018-05-12T14:28:35.493Z,100939.22
2018-05-12T14:31:02.964Z,100940.64
2018-05-12T14:33:30.515Z,100935.09
2018-05-12T14:35:58.031Z,100937.29
2018-05-12T14:38:25.531Z,100929.24
2018-05-12T14:40:53.218Z,100927.72
2018-05-12T14:43:20.750Z,100930.05
2018-05-12T14:45:48.273Z,100929.03
2018-05-12T14:48:15.783Z,100932.09
2018-05-12T14:50:43.273Z,100925.40
2018-05-12T14:53:10.808Z,100922.49
2018-05-12T14:55:38.288Z,100920.07
2018-05-12T14:58:05.765Z,100915.98
2018-05-12T15:00:33.244Z,100919.05
2018-05-12T15:03:00.729Z,100917.34
2018-05-12T15:05:28.218Z,100914.84
2018-05-12T15:07:55.701Z,100910.39
2018-05-12T15:10:23.167Z,100916.30
2018-05-12T15:12:50.664Z,100908.66
2018-05-12T15:15:18.173Z,100906.59
2018-05-12T15:17:45.635Z,100902.58
2018-05-12T15:20:13.089Z,100909.87
2018-05-12T15:22:40.606Z,100901.85
2018-05-12T15:25:08.099Z,100905.32
2018-05-12T15:27:35.674Z,100904.64
2018-05-12T15:30:03.198Z,100894.64
2018-05-12T15:32:30.679Z,100890.73
2018-05-12T15:34:58.155Z,100887.59
2018-05-12T15:37:25.657Z,100884.80
2018-05-12T15:39:53.176Z,100880.41
2018-05-12T15:42:20.676Z,100882.86
2018-05-12T15:44:48.127Z,100874.98
2018-05-12T15:47:15.620Z,100875.10
2018-05-12T15:49:43.121Z,100875.84
2018-05-12T15:52:10.614Z,100875.35
2018-05-12T15:54:38.117Z,100860.64
2018-05-12T15:57:05.616Z,100866.34
2018-05-12T15:59:33.117Z,100859.41
2018-05-12T16:02:00.652Z,100861.70
2018-05-12T16:04:28.248Z,100855.78
2018-05-12T16:06:55.736Z,100853.98
2018-05-12T16:09:23.225Z,100852.34
2018-05-12T16:11:50.724Z,100854.56
2018-05-12T16:14:18.207Z,100845.02
2018-05-12T16:16:45.766Z,100843.59
2018-05-12T16:19:13.286Z,100840.11
2018-05-12T16:21:40.777Z,100838.08
2018-05-12T16:24:08.281Z,100840.63
2018-05-12T16:26:35.778Z,100832.56
2018-05-12T16:29:03.251Z,100833.05
2018-05-12T16:31:30.851Z,100828.53
2018-05-12T16:33:58.264Z,100829.31
2018-05-12T16:36:25.813Z,100827.84
2018-05-12T16:38:53.328Z,100833.66
2018-05-12T16:41:20.826Z,100833.12
2018-05-12T16:43:48.283Z,100824.63
2018-05-12T16:46:15.848Z,100829.89
2018-05-12T16:48:43.376Z,100834.43
2018-05-12T16:51:10.894Z,100835.66
2018-05-12T16:53:38.396Z,100830.39
2018-05-12T16:56:05.854Z,100825.90
2018-05-12T16:58:33.377Z,100827.69
2018-05-12T17:01:00.995Z,100819.27
2018-05-12T17:03:28.459Z,100818.20
2018-05-12T17:05:55.941Z,100813.56
2018-05-12T17:08:23.405Z,100816.94
2018-05-12T17:10:50.877Z,100818.06
2018-05-12T17:13:18.457Z,100814.19
2018-05-12T17:15:46.115Z,100819.40
2018-05-12T17:18:13.685Z,100818.78
2018-05-12T17:20:41.273Z,100822.94
2018-05-12T17:23:09.081Z,100825.11
2018-05-12T17:25:37.611Z,100825.69
2018-05-12T17:28:05.123Z,100823.57
2018-05-12T17:30:32.607Z,100825.58
2018-05-12T17:33:00.167Z,100825.91
2018-05-12T17:35:27.659Z,100825.18
2018-05-12T17:37:55.144Z,100825.58
2018-05-12T17:40:22.936Z,100834.49
2018-05-12T17:42:50.546Z,100833.84
2018-05-12T17:45:18.109Z,100828.77
2018-05-12T17:47:45.686Z,100834.30
2018-05-12T17:50:13.226Z,100833.11
2018-05-12T17:52:41.001Z,100830.28
2018-05-12T17:55:09.601Z,100834.53
2018-05-12T17:57:37.087Z,100828.67
2018-05-12T18:00:04.594Z,100831.77
2018-05-12T18:02:32.076Z,100829.11
2018-05-12T18:04:59.600Z,100832.54
2018-05-12T18:07:27.133Z,100834.53
2018-05-12T18:09:54.777Z,100831.55
2018-05-12T18:12:22.475Z,100831.89
2018-05-12T18:14:50.065Z,100832.26
2018-05-12T18:17:17.895Z,100829.27
2018-05-12T18:19:45.461Z,100824.41
2018-05-12T18:22:13.024Z,100826.01
2018-05-12T18:24:40.518Z,100824.59
2018-05-12T18:27:08.103Z,100823.19
2018-05-12T18:29:35.585Z,100818.86
2018-05-12T18:32:03.081Z,100823.25
2018-05-12T18:34:30.591Z,100819.19
2018-05-12T18:36:58.097Z,100818.00
2018-05-12T18:39:25.623Z,100819.05
2018-05-12T18:41:53.203Z,100822.05
2018-05-12T18:44:20.695Z,100821.45
2018-05-12T18:46:48.209Z,100822.50
2018-05-12T18:49:18.537Z,100821.90
2018-05-12T18:51:46.020Z,100829.44
2018-05-12T18:54:16.432Z,100829.39
2018-05-12T18:56:44.004Z,100827.15
2018-05-12T18:59:11.398Z,100830.80
2018-05-12T19:01:38.914Z,100836.87
2018-05-12T19:04:06.453Z,100842.98
2018-05-12T19:06:34.012Z,100843.87
2018-05-12T19:09:01.533Z,100844.91
2018-05-12T19:11:29.119Z,100839.02
2018-05-12T19:13:56.599Z,100841.81
2018-05-12T19:16:24.072Z,100842.01
2018-05-12T19:18:51.604Z,100841.22
2018-05-12T19:21:19.084Z,100841.45
2018-05-12T19:23:46.564Z,100843.39
2018-05-12T19:26:14.053Z,100837.13
2018-05-12T19:28:41.774Z,100841.44
2018-05-12T19:31:09.309Z,100843.95
2018-05-12T19:33:36.867Z,100844.13
2018-05-12T19:36:04.367Z,100842.66
2018-05-12T19:38:31.971Z,100848.04
2018-05-12T19:40:59.447Z,100842.59
2018-05-12T19:43:26.922Z,100847.87
2018-05-12T19:45:54.439Z,100845.27
2018-05-12T19:48:21.956Z,100848.48
2018-05-12T19:50:49.457Z,100855.01
2018-05-12T19:53:16.980Z,100851.19
2018-05-12T19:55:44.437Z,100847.36
2018-05-12T19:58:11.937Z,100846.01
2018-05-12T20:00:39.498Z,100849.20
2018-05-12T20:03:07.069Z,100844.28
2018-05-12T20:05:34.553Z,100849.55
2018-05-12T20:08:02.076Z,100848.20
2018-05-12T20:10:29.563Z,100849.88
2018-05-12T20:12:57.069Z,100837.77
2018-05-12T20:15:24.558Z,100841.66
2018-05-12T20:17:52.067Z,100834.40
2018-05-12T20:20:19.557Z,100842.39
2018-05-12T20:22:47.014Z,100839.25
2018-05-12T20:25:14.482Z,100844.08
2018-05-12T20:27:41.978Z,100840.69
2018-05-12T20:30:09.499Z,100841.68
2018-05-12T20:32:36.968Z,100840.58
2018-05-12T20:35:04.522Z,100837.47
2018-05-12T20:37:32.139Z,100842.83
2018-05-12T20:39:59.556Z,100836.80
2018-05-12T20:42:27.060Z,100845.33
2018-05-12T20:44:54.568Z,100840.56
2018-05-12T20:47:22.024Z,100838.80
2018-05-12T20:49:49.512Z,100841.02
2018-05-12T20:52:17.014Z,100836.19
2018-05-12T20:54:44.508Z,100840.08
2018-05-12T20:57:12.011Z,100840.63
2018-05-12T20:59:39.684Z,100836.52
2018-05-12T21:02:07.248Z,100840.66
2018-05-12T21:04:34.707Z,100840.67
2018-05-12T21:07:02.188Z,100841.41
2018-05-12T21:09:29.677Z,100841.44
2018-05-12T21:11:57.171Z,100838.16
2018-05-12T21:14:25.396Z,100839.66
2018-05-12T21:16:52.891Z,100840.92
2018-05-12T21:19:20.437Z,100839.69
2018-05-12T21:21:47.910Z,100844.92
2018-05-12T21:24:15.396Z,100842.93
2018-05-12T21:26:42.873Z,100839.66
2018-05-12T21:29:10.342Z,100844.22
2018-05-12T21:31:37.994Z,100846.03
2018-05-12T21:34:05.455Z,100844.12
2018-05-12T21:36:32.952Z,100845.07
2018-05-12T21:39:00.465Z,100841.80
2018-05-12T21:41:27.985Z,100837.44
2018-05-12T21:43:55.535Z,100845.40
2018-05-12T21:46:23.542Z,100841.84
2018-05-12T21:48:51.105Z,100836.48
2018-05-12T21:51:18.582Z,100845.42
2018-05-12T21:53:46.086Z,100841.73
2018-05-12T21:56:13.622Z,100841.04
2018-05-12T21:58:41.173Z,100842.66
2018-05-12T22:01:08.754Z,100845.41
2018-05-12T22:03:36.237Z,100839.11
2018-05-12T22:06:03.746Z,100839.52
2018-05-12T22:08:31.241Z,100837.45
2018-05-12T22:10:58.775Z,100840.19
2018-05-12T22:13:26.278Z,100834.00
2018-05-12T22:15:53.790Z,100838.41
2018-05-12T22:18:21.310Z,100842.48
2018-05-12T22:20:48.844Z,100840.70
2018-05-12T22:23:16.304Z,100839.33
2018-05-12T22:25:43.828Z,100837.39
2018-05-12T22:28:11.327Z,100837.53
2018-05-12T22:30:38.826Z,100839.71
2018-05-12T22:33:06.318Z,100840.92
2018-05-12T22:35:33.779Z,100836.11
2018-05-12T22:38:01.241Z,100839.69
2018-05-12T22:40:31.662Z,100844.87
2018-05-12T22:42:59.229Z,100839.93
2018-05-12T22:45:26.743Z,100837.70
2018-05-12T22:47:54.209Z,100832.73
2018-05-12T22:50:21.803Z,100834.80
2018-05-12T22:52:49.301Z,100830.25
2018-05-12T22:55:16.771Z,100822.16
2018-05-12T22:57:44.243Z,100826.67
2018-05-12T23:00:11.731Z,100818.20
2018-05-12T23:02:39.303Z,100819.96
2018-05-12T23:05:06.793Z,100815.15
2018-05-12T23:07:34.316Z,100819.55
2018-05-12T23:10:01.827Z,100816.66
2018-05-12T23:12:29.633Z,100809.09
2018-05-12T23:14:57.131Z,100808.27
2018-05-12T23:17:24.620Z,100808.92
2018-05-12T23:19:52.113Z,100811.09
2018-05-12T23:22:19.609Z,100810.91
2018-05-12T23:24:47.194Z,100808.72
2018-05-12T23:27:14.697Z,100804.61
2018-05-12T23:29:42.186Z,100804.59
2018-05-12T23:32:09.705Z,100803.36
2018-05-12T23:34:37.238Z,100805.53
2018-05-12T23:37:04.816Z,100808.11
2018-05-12T23:39:32.311Z,100807.30
2018-05-12T23:41:59.840Z,100808.26
2018-05-12T23:44:27.300Z,100813.57
2018-05-12T23:46:54.793Z,100807.00
2018-05-12T23:49:22.430Z,100811.92
2018-05-12T23:51:49.898Z,100807.92
2018-05-12T23:54:17.384Z,100803.66
2018-05-12T23:56:44.855Z,100805.58
2018-05-12T23:59:12.439Z,100809.52
